Time;durP1;ratioP1;P1;durP2;ratioP2;P2;SDS_P1;SDS_P2;PMS_P1;PMS_P2;Temp;Humidity;BMP_temperature;BMP_pressure;BME280_temperature;BME280_humidity;BME280_pressure;Samples;Min_cycle;Max_cycle;Signal;HPM_P1;HPM_P2
2022/07/13 00:00:26;;;;;;;;;;;;;;;-142.75;100.00;76422.66;4952004;28;20304;-71
2022/07/13 00:02:52;;;;;;;;;;;;;;;-142.75;100.00;76420.69;4952171;28;19919;-71
2022/07/13 00:05:17;;;;;;;;;;;;;;;-142.75;100.00;76412.81;4951692;28;19921;-70
2022/07/13 00:07:42;;;;;;;;;;;;;;;-142.75;100.00;76408.88;4951630;28;20434;-70
2022/07/13 00:10:08;;;;;;;;;;;;;;;-142.75;100.00;76402.97;4951899;28;20029;-71
2022/07/13 00:12:33;;;;;;;;;;;;;;;-142.75;100.00;76408.88;4951816;28;19974;-71
2022/07/13 00:14:58;;;;;;;;;;;;;;;-142.75;100.00;76402.97;4951704;28;19915;-70
2022/07/13 00:17:23;;;;;;;;;;;;;;;-142.75;100.00;76404.94;4951890;28;19914;-69
2022/07/13 00:19:49;;;;;;;;;;;;;;;-142.75;100.00;76408.88;4951460;28;19921;-71
2022/07/13 00:22:14;;;;;;;;;;;;;;;-142.75;100.00;76408.88;4951806;28;19915;-71
2022/07/13 00:24:40;;;;;;;;;;;;;;;-142.75;100.00;76402.97;4951507;28;20422;-70
2022/07/13 00:27:05;;;;;;;;;;;;;;;-142.75;100.00;76412.81;4950497;28;19914;-71
2022/07/13 00:29:30;;;;;;;;;;;;;;;-142.75;100.00;76412.81;4951394;28;19945;-70
2022/07/13 00:31:55;;;;;;;;;;;;;;;-142.75;100.00;76414.78;4951629;28;20376;-71
2022/07/13 00:34:20;;;;;;;;;;;;;;;-142.75;100.00;76416.75;4951601;28;19921;-71
2022/07/13 00:36:46;;;;;;;;;;;;;;;-142.75;100.00;76422.66;4951558;28;20001;-71
2022/07/13 00:39:13;;;;;;;;;;;;;;;-142.75;100.00;76424.63;4950766;28;21452;-69
2022/07/13 00:41:47;;;;;;;;;;;;;;;-142.75;100.00;76420.69;4951523;28;19961;-71
2022/07/13 00:44:13;;;;;;;;;;;;;;;-142.75;100.00;76412.81;4951610;28;20002;-72
2022/07/13 00:46:40;;;;;;;;;;;;;;;-142.75;100.00;76412.81;4951479;28;19983;-71
2022/07/13 00:49:05;;;;;;;;;;;;;;;-142.75;100.00;76410.84;4951164;28;19997;-70
2022/07/13 00:51:30;;;;;;;;;;;;;;;-142.75;100.00;76412.81;4951285;28;19965;-71
2022/07/13 00:53:56;;;;;;;;;;;;;;;-142.75;100.00;76406.91;4952330;28;19921;-71
2022/07/13 00:56:22;;;;;;;;;;;;;;;-142.75;100.00;76406.91;4954792;28;19922;-71
2022/07/13 00:58:47;;;;;;;;;;;;;;;-142.75;100.00;76401.00;4954244;28;19968;-70
2022/07/13 01:01:12;;;;;;;;;;;;;;;-142.75;100.00;76401.00;4954612;28;19918;-71
2022/07/13 01:03:38;;;;;;;;;;;;;;;-142.75;100.00;76393.13;4954432;28;19938;-71
2022/07/13 01:06:04;;;;;;;;;;;;;;;-142.75;100.00;76393.13;4954478;28;19925;-70
2022/07/13 01:08:29;;;;;;;;;;;;;;;-142.75;100.00;76393.13;4954185;28;19914;-71
2022/07/13 01:10:56;;;;;;;;;;;;;;;-142.75;100.00;76397.06;4954423;28;19914;-71
2022/07/13 01:13:22;;;;;;;;;;;;;;;-142.75;100.00;76408.88;4954296;28;19918;-70
2022/07/13 01:15:47;;;;;;;;;;;;;;;-142.75;100.00;76401.00;4954411;28;20300;-71
2022/07/13 01:18:13;;;;;;;;;;;;;;;-142.75;100.00;76397.06;4954036;28;19919;-69
2022/07/13 01:20:39;;;;;;;;;;;;;;;-142.75;100.00;76393.13;4954215;28;19918;-71
2022/07/13 01:23:07;;;;;;;;;;;;;;;-142.75;100.00;76389.19;4954418;28;19915;-71
2022/07/13 01:25:32;;;;;;;;;;;;;;;-142.75;100.00;76381.31;4954074;28;19972;-71
2022/07/13 01:27:57;;;;;;;;;;;;;;;-142.75;100.00;76383.28;4954038;28;19914;-71
2022/07/13 01:30:23;;;;;;;;;;;;;;;-142.75;100.00;76387.22;4954175;28;20338;-71
2022/07/13 01:32:49;;;;;;;;;;;;;;;-142.75;100.00;76387.22;4953974;28;19925;-71
2022/07/13 01:35:15;;;;;;;;;;;;;;;-142.75;100.00;76393.13;4954102;28;19968;-71
2022/07/13 01:37:41;;;;;;;;;;;;;;;-142.75;100.00;76393.13;4954220;28;19960;-71
2022/07/13 01:40:06;;;;;;;;;;;;;;;-142.75;100.00;76395.09;4953865;28;19918;-71
2022/07/13 01:42:32;;;;;;;;;;;;;;;-142.75;100.00;76399.03;4954070;28;20008;-72
2022/07/13 01:44:58;;;;;;;;;;;;;;;-142.75;100.00;76399.03;4953895;28;19915;-71
2022/07/13 01:47:23;;;;;;;;;;;;;;;-142.75;100.00;76404.94;4953923;28;19919;-71
2022/07/13 01:49:49;;;;;;;;;;;;;;;-142.75;100.00;76406.91;4953710;28;20025;-71
2022/07/13 01:52:14;;;;;;;;;;;;;;;-142.75;100.00;76408.88;4952909;28;19918;-71
2022/07/13 01:54:39;;;;;;;;;;;;;;;-142.75;100.00;76401.00;4952076;28;19919;-71
2022/07/13 01:57:04;;;;;;;;;;;;;;;-142.75;100.00;76399.03;4953958;28;19968;-71
2022/07/13 01:59:30;;;;;;;;;;;;;;;-142.75;100.00;76399.03;4953653;28;20051;-71
2022/07/13 02:01:55;;;;;;;;;;;;;;;-142.75;100.00;76401.00;4953725;28;19915;-71
2022/07/13 02:04:20;;;;;;;;;;;;;;;-142.75;100.00;76391.16;4953644;28;19921;-71
2022/07/13 02:06:45;;;;;;;;;;;;;;;-142.75;100.00;76385.25;4953091;28;19914;-71
2022/07/13 02:09:10;;;;;;;;;;;;;;;-142.75;100.00;76385.25;4953397;28;20365;-72
2022/07/13 02:11:36;;;;;;;;;;;;;;;-142.75;100.00;76381.31;4953597;28;19977;-71
2022/07/13 02:14:01;;;;;;;;;;;;;;;-142.75;100.00;76373.44;4953473;28;19915;-72
2022/07/13 02:16:26;;;;;;;;;;;;;;;-142.75;100.00;76377.38;4953576;28;19953;-71
2022/07/13 02:18:51;;;;;;;;;;;;;;;-142.75;100.00;76371.47;4953136;28;20342;-71
2022/07/13 02:21:16;;;;;;;;;;;;;;;-142.75;100.00;76379.34;4953546;28;20432;-71
2022/07/13 02:23:42;;;;;;;;;;;;;;;-142.75;100.00;76381.31;4953251;28;19918;-71
2022/07/13 02:26:07;;;;;;;;;;;;;;;-142.75;100.00;76375.41;4953428;28;20379;-71
2022/07/13 02:28:32;;;;;;;;;;;;;;;-142.75;100.00;76373.44;4953046;28;20319;-71
2022/07/13 02:30:57;;;;;;;;;;;;;;;-142.75;100.00;76371.47;4953381;28;19968;-71
2022/07/13 02:33:23;;;;;;;;;;;;;;;-142.75;100.00;76365.56;4952984;28;20017;-70
2022/07/13 02:35:49;;;;;;;;;;;;;;;-142.75;100.00;76373.44;4953370;28;19918;-71
2022/07/13 02:38:14;;;;;;;;;;;;;;;-142.75;100.00;76365.56;4952986;28;19922;-71
2022/07/13 02:40:39;;;;;;;;;;;;;;;-142.75;100.00;76365.56;4953320;28;19915;-70
2022/07/13 02:43:05;;;;;;;;;;;;;;;-142.75;100.00;76357.69;4953250;28;19921;-71
2022/07/13 02:45:30;;;;;;;;;;;;;;;-142.75;100.00;76361.63;4953075;28;19915;-70
2022/07/13 02:47:55;;;;;;;;;;;;;;;-142.75;100.00;76361.63;4952770;28;19914;-69
2022/07/13 02:50:21;;;;;;;;;;;;;;;-142.75;100.00;76353.78;4952924;28;20433;-71
2022/07/13 02:52:46;;;;;;;;;;;;;;;-142.75;100.00;76343.94;4952815;28;19918;-71
2022/07/13 02:57:42;;;;;;;;;;;;;;;-142.75;100.00;76341.97;5049293;28;20023;-65
2022/07/13 03:00:08;;;;;;;;;;;;;;;-142.75;100.00;76341.97;5052122;28;19963;-66
2022/07/13 03:02:33;;;;;;;;;;;;;;;-142.75;100.00;76341.97;5053401;28;20016;-66
2022/07/13 03:04:58;;;;;;;;;;;;;;;-142.75;100.00;76347.84;5035443;28;19912;-66
2022/07/13 03:07:23;;;;;;;;;;;;;;;-142.75;100.00;76340.00;5053206;28;20414;-66
2022/07/13 03:09:49;;;;;;;;;;;;;;;-142.75;100.00;76341.97;5052910;28;19920;-66
2022/07/13 03:12:14;;;;;;;;;;;;;;;-142.75;100.00;76343.94;5035209;28;19917;-66
2022/07/13 03:14:39;;;;;;;;;;;;;;;-142.75;100.00;76341.97;5035268;28;19951;-66
2022/07/13 03:17:04;;;;;;;;;;;;;;;-142.75;100.00;76341.97;5052107;28;19920;-66
2022/07/13 03:19:30;;;;;;;;;;;;;;;-142.75;100.00;76332.13;5052724;28;19912;-69
2022/07/13 03:21:55;;;;;;;;;;;;;;;-142.75;100.00;76332.13;5053017;28;19958;-68
2022/07/13 03:24:20;;;;;;;;;;;;;;;-142.75;100.00;76340.00;5052932;28;19920;-68
2022/07/13 03:26:45;;;;;;;;;;;;;;;-142.75;100.00;76340.00;5052854;28;20363;-68
2022/07/13 03:29:10;;;;;;;;;;;;;;;-142.75;100.00;76330.16;5052776;28;19948;-69
2022/07/13 03:31:36;;;;;;;;;;;;;;;-142.75;100.00;76326.22;5052773;28;19912;-69
2022/07/13 03:34:01;;;;;;;;;;;;;;;-142.75;100.00;76334.09;5052822;28;19913;-68
2022/07/13 03:36:26;;;;;;;;;;;;;;;-142.75;100.00;76330.16;5052723;28;19924;-69
2022/07/13 03:38:52;;;;;;;;;;;;;;;-142.75;100.00;76318.34;5052537;28;19913;-68
2022/07/13 03:41:17;;;;;;;;;;;;;;;-142.75;100.00;76326.22;5052647;28;19921;-69
2022/07/13 03:43:42;;;;;;;;;;;;;;;-142.75;100.00;76328.19;5052680;28;19992;-69
2022/07/13 03:46:07;;;;;;;;;;;;;;;-142.75;100.00;76326.22;5052568;28;19913;-68
2022/07/13 03:48:32;;;;;;;;;;;;;;;-142.75;100.00;76328.19;5052299;28;19920;-68
2022/07/13 03:50:58;;;;;;;;;;;;;;;-142.75;100.00;76330.16;5034701;28;19952;-68
2022/07/13 03:53:23;;;;;;;;;;;;;;;-142.75;100.00;76334.09;5052450;28;19952;-66
2022/07/13 03:55:48;;;;;;;;;;;;;;;-142.75;100.00;76338.03;5034363;28;19971;-66
2022/07/13 03:58:13;;;;;;;;;;;;;;;-142.75;100.00;76338.03;5052143;28;19913;-66
2022/07/13 04:00:38;;;;;;;;;;;;;;;-142.75;100.00;76334.09;5034499;28;20290;-66
2022/07/13 04:03:04;;;;;;;;;;;;;;;-142.75;100.00;76340.00;5034497;28;20275;-66
2022/07/13 04:05:30;;;;;;;;;;;;;;;-142.75;100.00;76334.09;5052239;28;19913;-66
2022/07/13 04:07:55;;;;;;;;;;;;;;;-142.75;100.00;76338.03;5051972;28;20397;-66
2022/07/13 04:10:21;;;;;;;;;;;;;;;-142.75;100.00;76336.06;5034374;28;20409;-66
2022/07/13 04:12:47;;;;;;;;;;;;;;;-142.75;100.00;76330.16;5052206;28;20363;-66
2022/07/13 04:15:12;;;;;;;;;;;;;;;-142.75;100.00;76328.19;5034193;28;19952;-66
2022/07/13 04:17:38;;;;;;;;;;;;;;;-142.75;100.00;76328.19;5052185;28;20010;-66
2022/07/13 04:20:04;;;;;;;;;;;;;;;-142.75;100.00;76334.09;5051938;28;19913;-67
2022/07/13 04:22:29;;;;;;;;;;;;;;;-142.75;100.00;76326.22;5052135;28;20424;-66
2022/07/13 04:24:55;;;;;;;;;;;;;;;-142.75;100.00;76326.22;5051981;28;19923;-67
2022/07/13 04:27:20;;;;;;;;;;;;;;;-142.75;100.00;76328.19;5052051;28;19944;-66
2022/07/13 04:29:45;;;;;;;;;;;;;;;-142.75;100.00;76318.34;5054607;28;19912;-66
2022/07/13 04:32:10;;;;;;;;;;;;;;;-142.75;100.00;76326.22;5056136;28;20366;-66
2022/07/13 04:34:35;;;;;;;;;;;;;;;-142.75;100.00;76316.38;5056167;28;20321;-66
2022/07/13 04:37:01;;;;;;;;;;;;;;;-142.75;100.00;76314.41;5056042;28;19917;-66
2022/07/13 04:39:26;;;;;;;;;;;;;;;-142.75;100.00;76314.41;5055735;28;19912;-66
2022/07/13 04:41:51;;;;;;;;;;;;;;;-142.75;100.00;76310.47;5056074;28;20370;-66
2022/07/13 04:44:16;;;;;;;;;;;;;;;-142.75;100.00;76310.47;5055915;28;19916;-66
2022/07/13 04:46:41;;;;;;;;;;;;;;;-142.75;100.00;76318.34;5055919;28;19920;-66
2022/07/13 04:49:06;;;;;;;;;;;;;;;-142.75;100.00;76322.28;5055647;28;20283;-67
2022/07/13 04:51:33;;;;;;;;;;;;;;;-142.75;100.00;76304.56;5055802;28;20007;-66
2022/07/13 04:53:59;;;;;;;;;;;;;;;-142.75;100.00;76306.53;5055766;28;19913;-67
2022/07/13 04:56:24;;;;;;;;;;;;;;;-142.75;100.00;76306.53;5055550;28;19924;-66
2022/07/13 04:58:49;;;;;;;;;;;;;;;-142.75;100.00;76306.53;5055413;28;19936;-66
2022/07/13 05:01:14;;;;;;;;;;;;;;;-142.75;100.00;76306.53;5055663;28;20366;-66
2022/07/13 05:03:39;;;;;;;;;;;;;;;-142.75;100.00;76306.53;5055581;28;19915;-67
2022/07/13 05:06:04;;;;;;;;;;;;;;;-142.75;100.00;76304.56;5037642;28;19912;-67
2022/07/13 05:08:30;;;;;;;;;;;;;;;-142.75;100.00;76306.53;5055234;28;19912;-66
2022/07/13 05:10:55;;;;;;;;;;;;;;;-142.75;100.00;76296.69;5055480;28;20385;-66
2022/07/13 05:13:21;;;;;;;;;;;;;;;-142.75;100.00;76290.78;5055341;28;20305;-63
2022/07/13 05:15:46;;;;;;;;;;;;;;;-142.75;100.00;76292.75;5055256;28;20433;-67
2022/07/13 05:18:12;;;;;;;;;;;;;;;-142.75;100.00;76282.91;5055060;28;20007;-67
2022/07/13 05:20:37;;;;;;;;;;;;;;;-142.75;100.00;76284.88;5055296;28;19920;-67
2022/07/13 05:23:02;;;;;;;;;;;;;;;-142.75;100.00;76286.84;5055272;28;19913;-67
2022/07/13 05:25:28;;;;;;;;;;;;;;;-142.75;100.00;76282.91;5055079;28;19971;-67
2022/07/13 05:27:53;;;;;;;;;;;;;;;-142.75;100.00;76284.88;5054797;28;19913;-66
2022/07/13 05:30:18;;;;;;;;;;;;;;;-142.75;100.00;76292.75;5055154;28;19917;-67
2022/07/13 05:32:43;;;;;;;;;;;;;;;-142.75;100.00;76290.78;5055006;28;19924;-67
2022/07/13 05:35:08;;;;;;;;;;;;;;;-142.75;100.00;76286.84;5055046;28;19920;-66
2022/07/13 05:37:34;;;;;;;;;;;;;;;-142.75;100.00;76284.88;5055016;28;19920;-67
2022/07/13 05:39:59;;;;;;;;;;;;;;;-142.75;100.00;76288.81;5053736;28;19913;-68
2022/07/13 05:42:26;;;;;;;;;;;;;;;-142.75;100.00;76282.91;5054650;28;19916;-67
2022/07/13 05:44:51;;;;;;;;;;;;;;;-142.75;100.00;76292.75;5054880;28;19917;-67
2022/07/13 05:47:16;;;;;;;;;;;;;;;-142.75;100.00;76286.84;5054777;28;19923;-68
2022/07/13 05:49:41;;;;;;;;;;;;;;;-142.75;100.00;76290.78;5054450;28;19919;-67
2022/07/13 05:52:07;;;;;;;;;;;;;;;-142.75;100.00;76290.78;5054616;28;19928;-68
2022/07/13 05:54:33;;;;;;;;;;;;;;;-142.75;100.00;76298.66;5036780;28;19913;-67
2022/07/13 05:56:58;;;;;;;;;;;;;;;-142.75;100.00;76292.75;5054371;28;19917;-67
2022/07/13 05:59:23;;;;;;;;;;;;;;;-142.75;100.00;76294.72;5054334;28;20003;-67
2022/07/13 06:01:48;;;;;;;;;;;;;;;-142.75;100.00;76296.69;5054602;28;19920;-67
2022/07/13 06:04:14;;;;;;;;;;;;;;;-142.75;100.00;76292.75;5036666;28;19962;-68
2022/07/13 06:06:39;;;;;;;;;;;;;;;-142.75;100.00;76286.84;5054379;28;19912;-68
2022/07/13 06:09:04;;;;;;;;;;;;;;;-142.75;100.00;76286.84;5054016;28;19959;-67
2022/07/13 06:11:29;;;;;;;;;;;;;;;-142.75;100.00;76282.91;5054243;28;19913;-67
2022/07/13 06:13:54;;;;;;;;;;;;;;;-142.75;100.00;76280.94;5054163;28;19966;-68
2022/07/13 06:16:19;;;;;;;;;;;;;;;-142.75;100.00;76275.03;5054214;28;20322;-66
2022/07/13 06:18:45;;;;;;;;;;;;;;;-142.75;100.00;76271.09;5053925;28;19949;-68
2022/07/13 06:21:10;;;;;;;;;;;;;;;-142.75;100.00;76263.22;5054170;28;19944;-67
2022/07/13 06:23:35;;;;;;;;;;;;;;;-142.75;100.00;76263.22;5054085;28;19913;-67
2022/07/13 06:26:00;;;;;;;;;;;;;;;-142.75;100.00;76263.22;5054021;28;19920;-68
2022/07/13 06:28:25;;;;;;;;;;;;;;;-142.75;100.00;76263.22;5053771;28;19920;-68
2022/07/13 06:30:51;;;;;;;;;;;;;;;-142.75;100.00;76255.34;5054072;28;19913;-67
2022/07/13 06:33:16;;;;;;;;;;;;;;;-142.75;100.00;76261.25;5053911;28;20412;-68
2022/07/13 06:35:41;;;;;;;;;;;;;;;-142.75;100.00;76255.34;5053922;28;19917;-67
2022/07/13 06:38:06;;;;;;;;;;;;;;;-142.75;100.00;76251.41;5053703;28;19923;-67
2022/07/13 06:40:31;;;;;;;;;;;;;;;-142.75;100.00;76255.34;5053710;28;19936;-67
2022/07/13 06:42:57;;;;;;;;;;;;;;;-142.75;100.00;76247.47;5053821;28;19916;-66
2022/07/13 06:45:22;;;;;;;;;;;;;;;-142.75;100.00;76239.59;5053720;28;20015;-66
2022/07/13 06:47:48;;;;;;;;;;;;;;;-142.75;100.00;76235.66;5053537;28;19923;-66
2022/07/13 06:50:13;;;;;;;;;;;;;;;-142.75;100.00;76219.91;5053533;28;19912;-67
2022/07/13 06:52:40;;;;;;;;;;;;;;;-142.75;100.00;76217.94;5052639;28;20007;-66
2022/07/13 06:55:06;;;;;;;;;;;;;;;-142.75;100.00;76214.00;5052511;28;19920;-66
2022/07/13 06:57:31;;;;;;;;;;;;;;;-142.75;100.00;76214.00;5052603;28;19959;-66
2022/07/13 06:59:57;;;;;;;;;;;;;;;-142.75;100.00;76196.31;5052388;28;19917;-66
2022/07/13 07:02:22;;;;;;;;;;;;;;;-142.75;100.00;76194.34;5052462;28;19913;-64
2022/07/13 07:04:47;;;;;;;;;;;;;;;-142.75;100.00;76204.16;5052569;28;20333;-67
2022/07/13 07:07:12;;;;;;;;;;;;;;;-142.75;100.00;76208.09;5052121;28;19913;-66
2022/07/13 07:09:38;;;;;;;;;;;;;;;-142.75;100.00;76219.91;5051995;28;19970;-64
2022/07/13 07:12:03;;;;;;;;;;;;;;;-142.75;100.00;76215.97;5052144;28;20007;-64
2022/07/13 07:14:32;;;;;;;;;;;;;;;-142.75;100.00;76210.06;5052169;28;19913;-65
2022/07/13 07:16:58;;;;;;;;;;;;;;;-142.75;100.00;76212.03;5052268;28;19916;-66
2022/07/13 07:19:23;;;;;;;;;;;;;;;-142.75;100.00;76206.13;5051821;28;19919;-65
2022/07/13 07:21:48;;;;;;;;;;;;;;;-142.75;100.00;76200.25;5052009;28;19913;-65
2022/07/13 07:24:14;;;;;;;;;;;;;;;-142.75;100.00;76196.31;5051790;28;19923;-65
2022/07/13 07:26:39;;;;;;;;;;;;;;;-142.75;100.00;76186.47;5034023;28;19956;-67
2022/07/13 07:29:04;;;;;;;;;;;;;;;-142.75;100.00;76170.72;5033736;28;20464;-66
2022/07/13 07:31:29;;;;;;;;;;;;;;;-142.75;100.00;76151.03;5052091;28;19913;-66
2022/07/13 07:33:54;;;;;;;;;;;;;;;-142.75;100.00;76145.13;5051932;28;19917;-66
2022/07/13 07:36:20;;;;;;;;;;;;;;;-142.75;100.00;76121.50;5051732;28;19919;-68
2022/07/13 07:38:45;;;;;;;;;;;;;;;-142.75;100.00;76093.94;5051293;28;19912;-67
2022/07/13 07:41:11;;;;;;;;;;;;;;;-142.75;100.00;76050.66;5051924;28;19924;-67
2022/07/13 07:43:36;;;;;;;;;;;;;;;-142.75;100.00;76015.22;5052057;28;20390;-65
2022/07/13 07:46:02;;;;;;;;;;;;;;;-142.75;100.00;76003.41;5051657;28;19964;-65
2022/07/13 07:48:27;;;;;;;;;;;;;;;-142.75;100.00;75979.78;5051413;28;20428;-66
2022/07/13 07:50:52;;;;;;;;;;;;;;;-142.75;100.00;75967.97;5051399;28;19919;-65
2022/07/13 07:53:17;;;;;;;;;;;;;;;-142.75;100.00;75954.22;5050719;28;20010;-65
2022/07/13 07:55:42;;;;;;;;;;;;;;;-142.75;100.00;75960.13;5051381;28;19916;-64
2022/07/13 07:58:08;;;;;;;;;;;;;;;-142.75;100.00;75954.22;5033406;28;20290;-67
2022/07/13 08:00:33;;;;;;;;;;;;;;;-142.75;100.00;75932.56;5052391;28;19913;-67
2022/07/13 08:03:02;;;;;;;;;;;;;;;-142.75;100.00;75916.81;5051949;28;19913;-67
2022/07/13 08:05:27;;;;;;;;;;;;;;;-142.75;100.00;75895.16;5052187;28;19916;-67
2022/07/13 08:07:53;;;;;;;;;;;;;;;-142.75;100.00;75885.31;5051937;28;19966;-66
2022/07/13 08:10:18;;;;;;;;;;;;;;;-142.75;100.00;75851.88;5051601;28;19919;-67
2022/07/13 08:12:43;;;;;;;;;;;;;;;-142.75;100.00;75810.53;5052245;28;19943;-67
2022/07/13 08:15:09;;;;;;;;;;;;;;;-142.75;100.00;75790.84;5034325;28;19913;-68
2022/07/13 08:17:37;;;;;;;;;;;;;;;-142.75;100.00;75735.75;5052084;28;19913;-68
2022/07/13 08:20:03;;;;;;;;;;;;;;;-142.75;100.00;75702.28;5051708;28;19913;-68
2022/07/13 08:22:28;;;;;;;;;;;;;;;-142.75;100.00;75692.44;5034094;28;20038;-68
2022/07/13 08:24:54;;;;;;;;;;;;;;;-142.75;100.00;75688.50;5040127;28;20048;-64
2022/07/13 08:27:20;;;;;;;;;;;;;;;-142.75;100.00;75674.72;5013194;28;19917;-66
2022/07/13 08:29:46;;;;;;;;;;;;;;;-142.75;100.00;75660.97;5031722;28;19913;-66
2022/07/13 08:32:11;;;;;;;;;;;;;;;-142.75;100.00;75635.38;5031800;28;20395;-67
2022/07/13 08:40:04;;;;;;;;;;;;;;;-142.75;100.00;75594.06;5031995;28;19960;-67
2022/07/13 08:42:30;;;;;;;;;;;;;;;-142.75;100.00;75578.31;5031835;28;19913;-67
2022/07/13 08:44:55;;;;;;;;;;;;;;;-142.75;100.00;75596.00;5031752;28;20318;-67
2022/07/13 08:47:20;;;;;;;;;;;;;;;-142.75;100.00;75609.78;5031569;28;20259;-66
2022/07/13 08:49:46;;;;;;;;;;;;;;;-142.75;100.00;75594.06;5031579;28;19913;-69
2022/07/13 08:52:12;;;;;;;;;;;;;;;-142.75;100.00;75562.56;5031280;28;19924;-66
2022/07/13 08:54:37;;;;;;;;;;;;;;;-142.75;100.00;75538.94;5031509;28;19917;-68
2022/07/13 08:57:02;;;;;;;;;;;;;;;-142.75;100.00;75523.19;5057447;22;19924;-71
2022/07/13 08:59:28;;;;;;;;;;;;;;;-142.75;97.80;75499.59;5049876;28;19917;-71
2022/07/13 09:01:53;;;;;;;;;;;;;;;-142.75;100.00;75464.16;5051565;28;20015;-70
2022/07/13 09:04:18;;;;;;;;;;;;;;;-142.75;98.61;75444.47;5051663;28;19913;-72
2022/07/13 09:06:45;;;;;;;;;;;;;;;-142.75;96.40;75434.66;5051652;28;20016;-71
2022/07/13 09:09:36;;;;;;;;;;;;;;;-142.75;96.86;75413.00;5033549;28;19912;-71
2022/07/13 09:12:12;;;;;;;;;;;;;;;-142.75;94.19;75405.13;5051553;28;19916;-70
2022/07/13 09:14:38;;;;;;;;;;;;;;;-142.75;95.87;75377.56;5052283;28;19913;-70
2022/07/13 09:17:03;;;;;;;;;;;;;;;-142.75;96.47;75357.91;5055163;28;20400;-70
2022/07/13 09:19:36;;;;;;;;;;;;;;;-142.75;85.45;75352.00;5054652;28;19983;-70
2022/07/13 09:22:12;;;;;;;;;;;;;;;-142.75;81.43;75342.16;5054449;28;20334;-70
2022/07/13 09:24:47;;;;;;;;;;;;;;;-142.75;86.83;75310.66;5036325;28;20333;-71
2022/07/13 09:27:13;;;;;;;;;;;;;;;-142.75;86.41;75292.97;5055029;28;19920;-70
2022/07/13 09:29:38;;;;;;;;;;;;;;;-142.75;79.57;75281.16;5054949;28;19913;-70
2022/07/13 09:32:06;;;;;;;;;;;;;;;-142.75;81.18;75294.94;5055001;28;19917;-71
2022/07/13 09:34:46;;;;;;;;;;;;;;;-142.75;82.10;75283.13;5055131;28;19917;-70
2022/07/13 09:37:12;;;;;;;;;;;;;;;-142.75;82.55;75275.25;5054973;28;19982;-71
2022/07/13 09:39:55;;;;;;;;;;;;;;;-142.75;75.75;75275.25;5054709;28;19913;-70
2022/07/13 09:42:30;;;;;;;;;;;;;;;-142.75;77.18;75251.63;5054975;28;19987;-70
2022/07/13 09:47:47;;;;;;;;;;;;;;;-142.75;75.52;75302.78;5054689;28;19919;-69
2022/07/13 09:50:13;;;;;;;;;;;;;;;-142.75;77.95;75291.00;5054630;28;19947;-69
2022/07/13 09:52:38;;;;;;;;;;;;;;;-142.75;73.25;75253.59;5054678;28;19916;-69
2022/07/13 09:55:06;;;;;;;;;;;;;;;-142.75;73.30;75237.84;5054751;28;19912;-70
2022/07/13 09:57:33;;;;;;;;;;;;;;;-142.75;74.59;75253.59;5036575;28;19924;-70
2022/07/13 09:59:59;;;;;;;;;;;;;;;-142.75;74.09;75247.69;5054260;28;20442;-70
2022/07/13 10:02:24;;;;;;;;;;;;;;;-142.75;75.11;75229.97;5054519;28;20003;-70
2022/07/13 10:04:51;;;;;;;;;;;;;;;-142.75;73.18;75239.81;5054477;28;20333;-70
2022/07/13 10:07:16;;;;;;;;;;;;;;;-142.75;73.04;75216.22;5054489;28;20016;-70
2022/07/13 10:09:42;;;;;;;;;;;;;;;-142.75;71.98;75212.28;5054174;28;20378;-70
2022/07/13 10:12:08;;;;;;;;;;;;;;;-142.75;71.46;75239.81;5054334;28;20280;-70
2022/07/13 10:14:34;;;;;;;;;;;;;;;-142.75;73.22;75265.41;5054353;28;19919;-69
2022/07/13 10:17:00;;;;;;;;;;;;;;;-142.75;73.83;75312.63;5036315;28;19913;-70
2022/07/13 10:19:25;;;;;;;;;;;;;;;-142.75;72.46;75357.91;5053867;28;19913;-70
2022/07/13 10:21:51;;;;;;;;;;;;;;;-142.75;76.60;75424.81;5054203;28;20385;-70
2022/07/13 10:24:17;;;;;;;;;;;;;;;-142.75;78.54;75414.97;5054155;28;19955;-70
2022/07/13 10:26:42;;;;;;;;;;;;;;;-142.75;80.98;75409.06;5053534;28;20350;-70
2022/07/13 10:29:09;;;;;;;;;;;;;;;-142.75;82.44;75389.38;5053863;28;19912;-70
2022/07/13 10:31:36;;;;;;;;;;;;;;;-142.75;78.63;75397.25;5036173;28;19913;-70
2022/07/13 10:34:02;;;;;;;;;;;;;;;-142.75;81.87;75389.38;5053964;28;19916;-70
2022/07/13 10:36:46;;;;;;;;;;;;;;;-142.75;81.96;75381.50;5053822;28;20454;-70
2022/07/13 10:39:11;;;;;;;;;;;;;;;-142.75;82.93;75385.44;5053579;28;19913;-69
2022/07/13 10:41:54;;;;;;;;;;;;;;;-142.75;81.62;75377.56;5053857;28;20268;-71
2022/07/13 10:44:39;;;;;;;;;;;;;;;-142.75;82.08;75371.66;5053666;28;19917;-70
2022/07/13 10:47:06;;;;;;;;;;;;;;;-142.75;80.04;75379.53;5053670;28;19935;-69
2022/07/13 10:49:44;;;;;;;;;;;;;;;-142.75;80.84;75413.00;5053297;28;19913;-70
2022/07/13 10:52:19;;;;;;;;;;;;;;;-142.75;82.15;75367.72;5053560;28;20374;-70
2022/07/13 10:55:07;;;;;;;;;;;;;;;-142.75;81.60;75353.97;5053477;28;19913;-70
2022/07/13 10:57:42;;;;;;;;;;;;;;;-142.75;79.37;75381.50;5053302;28;19968;-69
2022/07/13 11:02:50;;;;;;;;;;;;;;;-142.75;77.92;75426.78;5053429;28;19917;-70
2022/07/13 11:05:19;;;;;;;;;;;;;;;-142.75;76.25;75448.41;5053312;28;19913;-70
2022/07/13 11:07:46;;;;;;;;;;;;;;;-142.75;77.06;75452.34;5035182;28;19936;-69
2022/07/13 11:10:30;;;;;;;;;;;;;;;-142.75;84.63;75446.44;5053039;28;19966;-70
2022/07/13 11:13:04;;;;;;;;;;;;;;;-142.75;80.95;75409.06;5053152;28;19917;-70
2022/07/13 11:15:42;;;;;;;;;;;;;;;-142.75;78.02;75414.97;5053122;28;19912;-70
2022/07/13 11:18:27;;;;;;;;;;;;;;;-142.75;80.90;75434.66;5034968;28;19913;-69
2022/07/13 11:20:56;;;;;;;;;;;;;;;-142.75;81.51;75434.66;5053014;28;19970;-70
2022/07/13 11:26:29;;;;;;;;;;;;;;;-142.75;79.47;75365.75;5053133;28;20450;-70
2022/07/13 11:29:01;;;;;;;;;;;;;;;-142.75;75.19;75348.06;5014867;28;19919;-69
2022/07/13 11:31:26;;;;;;;;;;;;;;;-142.75;75.05;75359.88;5052716;28;19913;-70
2022/07/13 11:33:51;;;;;;;;;;;;;;;-142.75;73.26;75401.19;5052735;28;20011;-69
2022/07/13 11:36:24;;;;;;;;;;;;;;;-142.75;73.92;75385.44;5052701;28;20055;-69
2022/07/13 11:38:49;;;;;;;;;;;;;;;-142.75;73.74;75353.97;5051621;28;19912;-71
2022/07/13 11:41:19;;;;;;;;;;;;;;;-142.75;74.17;75353.97;5034795;28;19939;-70
2022/07/13 11:43:50;;;;;;;;;;;;;;;-142.75;72.13;75338.22;5052660;28;19952;-69
2022/07/13 11:46:26;;;;;;;;;;;;;;;-142.75;72.32;75338.22;5052564;28;19913;-68
2022/07/13 11:49:01;;;;;;;;;;;;;;;-142.75;73.30;75359.88;5052175;28;19913;-69
2022/07/13 11:51:26;;;;;;;;;;;;;;;-142.75;73.12;75381.50;5052555;28;19963;-69
2022/07/13 11:53:52;;;;;;;;;;;;;;;-142.75;72.89;75422.84;5052438;28;19960;-70
2022/07/13 11:56:17;;;;;;;;;;;;;;;-142.75;74.07;75442.50;5052349;28;19921;-71
2022/07/13 11:58:45;;;;;;;;;;;;;;;-142.75;75.79;75460.22;5052228;28;20278;-70
2022/07/13 12:01:15;;;;;;;;;;;;;;;-142.75;76.74;75487.78;5052341;28;19920;-69
2022/07/13 12:03:40;;;;;;;;;;;;;;;-142.75;78.84;75487.78;5052261;28;20442;-70
2022/07/13 12:06:09;;;;;;;;;;;;;;;-142.75;78.00;75462.19;5052293;28;20023;-70
2022/07/13 12:08:35;;;;;;;;;;;;;;;-142.75;76.37;75456.28;5052018;28;19961;-69
2022/07/13 12:11:01;;;;;;;;;;;;;;;-142.75;74.68;75454.31;5052253;28;19920;-69
2022/07/13 12:13:27;;;;;;;;;;;;;;;-142.75;74.03;75436.59;5052252;28;20313;-70
2022/07/13 12:15:52;;;;;;;;;;;;;;;-142.75;72.58;75434.66;5052084;28;19927;-69
2022/07/13 12:18:17;;;;;;;;;;;;;;;-142.75;71.99;75432.69;5051804;28;19936;-70
2022/07/13 12:20:43;;;;;;;;;;;;;;;-142.75;74.68;75454.31;5052192;28;20452;-70
2022/07/13 12:23:08;;;;;;;;;;;;;;;-142.75;76.42;75460.22;5052119;28;19927;-69
2022/07/13 12:25:37;;;;;;;;;;;;;;;-142.75;76.66;75464.16;5034249;28;20003;-69
2022/07/13 12:28:04;;;;;;;;;;;;;;;-142.75;77.29;75475.97;5033646;28;20325;-70
2022/07/13 12:30:33;;;;;;;;;;;;;;;-142.75;78.11;75487.78;5051801;28;19912;-70
2022/07/13 12:33:00;;;;;;;;;;;;;;;-142.75;80.71;75474.00;5033981;28;20392;-70